sensor_id;sensor_type;location;lat;lon;timestamp;pressure;altitude;pressure_sealevel;temperature
69415;BMP280;56608;43.530;-5.652;2023-05-13T00:00:30;102130.50;;;14.07
69415;BMP280;56608;43.530;-5.652;2023-05-13T00:01:30;102126.56;;;13.92
69415;BMP280;56608;43.530;-5.652;2023-05-13T00:02:31;102129.94;;;13.80
69415;BMP280;56608;43.530;-5.652;2023-05-13T00:03:31;102134.41;;;13.87
69415;BMP280;56608;43.530;-5.652;2023-05-13T00:04:32;102129.03;;;13.87
69415;BMP280;56608;43.530;-5.652;2023-05-13T00:05:32;102129.53;;;13.82
69415;BMP280;56608;43.530;-5.652;2023-05-13T00:06:33;102125.31;;;13.81
69415;BMP280;56608;43.530;-5.652;2023-05-13T00:07:33;102132.56;;;13.84
69415;BMP280;56608;43.530;-5.652;2023-05-13T00:08:34;102134.41;;;13.87
69415;BMP280;56608;43.530;-5.652;2023-05-13T00:09:34;102131.66;;;13.90
69415;BMP280;56608;43.530;-5.652;2023-05-13T00:10:34;102131.47;;;13.97
69415;BMP280;56608;43.530;-5.652;2023-05-13T00:11:35;102125.31;;;13.97
69415;BMP280;56608;43.530;-5.652;2023-05-13T00:12:35;102124.31;;;13.91
69415;BMP280;56608;43.530;-5.652;2023-05-13T00:13:36;102129.53;;;13.98
69415;BMP280;56608;43.530;-5.652;2023-05-13T00:14:36;102131.22;;;13.92
69415;BMP280;56608;43.530;-5.652;2023-05-13T00:15:36;102126.50;;;13.96
69415;BMP280;56608;43.530;-5.652;2023-05-13T00:16:37;102128.19;;;14.06
69415;BMP280;56608;43.530;-5.652;2023-05-13T00:17:37;102130.91;;;14.06
69415;BMP280;56608;43.530;-5.652;2023-05-13T00:18:37;102130.06;;;14.09
69415;BMP280;56608;43.530;-5.652;2023-05-13T00:19:38;102123.28;;;14.01
69415;BMP280;56608;43.530;-5.652;2023-05-13T00:20:38;102127.03;;;14.07
69415;BMP280;56608;43.530;-5.652;2023-05-13T00:21:38;102130.97;;;14.02
69415;BMP280;56608;43.530;-5.652;2023-05-13T00:22:40;102136.31;;;14.06
69415;BMP280;56608;43.530;-5.652;2023-05-13T00:23:40;102124.81;;;14.02
69415;BMP280;56608;43.530;-5.652;2023-05-13T00:24:40;102131.91;;;13.96
69415;BMP280;56608;43.530;-5.652;2023-05-13T00:25:41;102130.12;;;14.05
69415;BMP280;56608;43.530;-5.652;2023-05-13T00:26:43;102117.03;;;14.04
69415;BMP280;56608;43.530;-5.652;2023-05-13T00:27:43;102131.03;;;13.99
69415;BMP280;56608;43.530;-5.652;2023-05-13T00:28:43;102132.44;;;14.07
69415;BMP280;56608;43.530;-5.652;2023-05-13T00:29:44;102131.56;;;13.94
69415;BMP280;56608;43.530;-5.652;2023-05-13T00:30:44;102130.28;;;13.98
69415;BMP280;56608;43.530;-5.652;2023-05-13T00:31:45;102123.53;;;13.90
69415;BMP280;56608;43.530;-5.652;2023-05-13T00:32:45;102122.44;;;13.88
69415;BMP280;56608;43.530;-5.652;2023-05-13T00:33:45;102121.06;;;13.80
69415;BMP280;56608;43.530;-5.652;2023-05-13T00:34:46;102125.47;;;13.90
69415;BMP280;56608;43.530;-5.652;2023-05-13T00:35:46;102120.41;;;13.92
69415;BMP280;56608;43.530;-5.652;2023-05-13T00:36:46;102121.09;;;13.96
69415;BMP280;56608;43.530;-5.652;2023-05-13T00:37:47;102124.72;;;13.89
69415;BMP280;56608;43.530;-5.652;2023-05-13T00:38:47;102119.06;;;13.84
69415;BMP280;56608;43.530;-5.652;2023-05-13T00:39:47;102119.66;;;13.91
69415;BMP280;56608;43.530;-5.652;2023-05-13T00:40:48;102120.34;;;13.95
69415;BMP280;56608;43.530;-5.652;2023-05-13T00:41:48;102117.87;;;14.01
69415;BMP280;56608;43.530;-5.652;2023-05-13T00:42:49;102120.16;;;14.02
69415;BMP280;56608;43.530;-5.652;2023-05-13T00:43:49;102118.50;;;14.08
69415;BMP280;56608;43.530;-5.652;2023-05-13T00:44:52;102118.91;;;14.07
69415;BMP280;56608;43.530;-5.652;2023-05-13T00:45:53;102112.34;;;14.08
69415;BMP280;56608;43.530;-5.652;2023-05-13T00:46:53;102115.81;;;14.08
69415;BMP280;56608;43.530;-5.652;2023-05-13T00:47:54;102113.00;;;14.12
69415;BMP280;56608;43.530;-5.652;2023-05-13T00:48:54;102117.63;;;14.12
69415;BMP280;56608;43.530;-5.652;2023-05-13T00:49:54;102111.56;;;14.07
69415;BMP280;56608;43.530;-5.652;2023-05-13T00:50:55;102107.75;;;14.05
69415;BMP280;56608;43.530;-5.652;2023-05-13T00:51:55;102113.84;;;14.09
69415;BMP280;56608;43.530;-5.652;2023-05-13T00:52:56;102106.25;;;14.04
69415;BMP280;56608;43.530;-5.652;2023-05-13T00:53:57;102107.75;;;14.05
69415;BMP280;56608;43.530;-5.652;2023-05-13T00:54:58;102104.75;;;14.03
69415;BMP280;56608;43.530;-5.652;2023-05-13T00:55:58;102100.66;;;13.95
69415;BMP280;56608;43.530;-5.652;2023-05-13T00:56:58;102101.00;;;13.97
69415;BMP280;56608;43.530;-5.652;2023-05-13T00:57:59;102104.03;;;13.99
69415;BMP280;56608;43.530;-5.652;2023-05-13T00:58:59;102100.00;;;13.91
69415;BMP280;56608;43.530;-5.652;2023-05-13T01:00:00;102100.06;;;13.87
69415;BMP280;56608;43.530;-5.652;2023-05-13T01:07:13;102095.81;;;13.70
69415;BMP280;56608;43.530;-5.652;2023-05-13T01:09:39;102099.94;;;13.75
69415;BMP280;56608;43.530;-5.652;2023-05-13T01:11:46;102099.44;;;13.63
69415;BMP280;56608;43.530;-5.652;2023-05-13T01:12:51;102097.16;;;13.62
69415;BMP280;56608;43.530;-5.652;2023-05-13T01:14:02;102092.88;;;13.64
69415;BMP280;56608;43.530;-5.652;2023-05-13T01:15:06;102092.50;;;13.62
69415;BMP280;56608;43.530;-5.652;2023-05-13T01:16:23;102096.34;;;13.45
69415;BMP280;56608;43.530;-5.652;2023-05-13T01:17:30;102096.22;;;13.52
69415;BMP280;56608;43.530;-5.652;2023-05-13T01:18:42;102088.91;;;13.49
69415;BMP280;56608;43.530;-5.652;2023-05-13T01:19:45;102087.41;;;13.48
69415;BMP280;56608;43.530;-5.652;2023-05-13T01:20:45;102088.13;;;13.52
69415;BMP280;56608;43.530;-5.652;2023-05-13T01:21:52;102090.87;;;13.49
69415;BMP280;56608;43.530;-5.652;2023-05-13T01:22:52;102093.66;;;13.45
69415;BMP280;56608;43.530;-5.652;2023-05-13T01:23:53;102089.00;;;13.46
69415;BMP280;56608;43.530;-5.652;2023-05-13T01:24:54;102085.81;;;13.51
69415;BMP280;56608;43.530;-5.652;2023-05-13T01:25:54;102091.31;;;13.47
69415;BMP280;56608;43.530;-5.652;2023-05-13T01:26:55;102090.31;;;13.57
69415;BMP280;56608;43.530;-5.652;2023-05-13T01:27:55;102084.91;;;13.57
69415;BMP280;56608;43.530;-5.652;2023-05-13T01:28:55;102086.22;;;13.49
69415;BMP280;56608;43.530;-5.652;2023-05-13T01:29:56;102092.34;;;13.53
69415;BMP280;56608;43.530;-5.652;2023-05-13T01:30:56;102089.69;;;13.50
69415;BMP280;56608;43.530;-5.652;2023-05-13T01:31:57;102085.81;;;13.51
69415;BMP280;56608;43.530;-5.652;2023-05-13T01:32:57;102092.34;;;13.53
69415;BMP280;56608;43.530;-5.652;2023-05-13T01:33:58;102094.19;;;13.56
69415;BMP280;56608;43.530;-5.652;2023-05-13T01:34:58;102100.25;;;13.60
69415;BMP280;56608;43.530;-5.652;2023-05-13T01:35:59;102102.13;;;13.63
69415;BMP280;56608;43.530;-5.652;2023-05-13T01:37:01;102098.59;;;13.66
69415;BMP280;56608;43.530;-5.652;2023-05-13T01:38:02;102102.38;;;13.69
69415;BMP280;56608;43.530;-5.652;2023-05-13T01:39:03;102100.34;;;13.73
69415;BMP280;56608;43.530;-5.652;2023-05-13T01:40:05;102096.06;;;13.76
69415;BMP280;56608;43.530;-5.652;2023-05-13T01:41:06;102095.28;;;13.79
69415;BMP280;56608;43.530;-5.652;2023-05-13T01:42:06;102096.34;;;13.81
69415;BMP280;56608;43.530;-5.652;2023-05-13T01:43:06;102093.66;;;13.81
69415;BMP280;56608;43.530;-5.652;2023-05-13T01:44:07;102084.09;;;13.77
69415;BMP280;56608;43.530;-5.652;2023-05-13T01:45:07;102086.09;;;13.73
69415;BMP280;56608;43.530;-5.652;2023-05-13T01:46:11;102085.53;;;13.65
69415;BMP280;56608;43.530;-5.652;2023-05-13T01:47:11;102084.75;;;13.64
69415;BMP280;56608;43.530;-5.652;2023-05-13T01:48:11;102085.53;;;13.65
69415;BMP280;56608;43.530;-5.652;2023-05-13T01:49:12;102083.84;;;13.71
69415;BMP280;56608;43.530;-5.652;2023-05-13T01:50:12;102085.25;;;13.76
69415;BMP280;56608;43.530;-5.652;2023-05-13T01:51:13;102083.06;;;13.70
69415;BMP280;56608;43.530;-5.652;2023-05-13T01:52:13;102083.12;;;13.67
69415;BMP280;56608;43.530;-5.652;2023-05-13T01:53:13;102080.13;;;13.65
69415;BMP280;56608;43.530;-5.652;2023-05-13T01:54:14;102084.56;;;13.55
69415;BMP280;56608;43.530;-5.652;2023-05-13T01:55:14;102076.41;;;13.59
69415;BMP280;56608;43.530;-5.652;2023-05-13T01:56:14;102082.62;;;13.56
69415;BMP280;56608;43.530;-5.652;2023-05-13T01:57:15;102075.72;;;13.55
69415;BMP280;56608;43.530;-5.652;2023-05-13T01:58:15;102077.03;;;13.47
69415;BMP280;56608;43.530;-5.652;2023-05-13T01:59:15;102082.00;;;13.48
69415;BMP280;56608;43.530;-5.652;2023-05-13T02:00:16;102079.38;;;13.45
69415;BMP280;56608;43.530;-5.652;2023-05-13T02:01:16;102083.25;;;13.44
69415;BMP280;56608;43.530;-5.652;2023-05-13T02:02:17;102078.63;;;13.44
69415;BMP280;56608;43.530;-5.652;2023-05-13T02:03:17;102079.28;;;13.48
69415;BMP280;56608;43.530;-5.652;2023-05-13T02:04:17;102076.56;;;13.52
69415;BMP280;56608;43.530;-5.652;2023-05-13T02:05:18;102077.03;;;13.47
69415;BMP280;56608;43.530;-5.652;2023-05-13T02:06:18;102077.87;;;13.44
69415;BMP280;56608;43.530;-5.652;2023-05-13T02:07:19;102075.56;;;13.42
69415;BMP280;56608;43.530;-5.652;2023-05-13T02:08:20;102079.38;;;13.45
69415;BMP280;56608;43.530;-5.652;2023-05-13T02:09:24;102080.09;;;13.29
69415;BMP280;56608;43.530;-5.652;2023-05-13T02:10:24;102077.59;;;13.38
69415;BMP280;56608;43.530;-5.652;2023-05-13T02:11:25;102079.91;;;13.40
69415;BMP280;56608;43.530;-5.652;2023-05-13T02:12:25;102073.72;;;13.39
69415;BMP280;56608;43.530;-5.652;2023-05-13T02:13:26;102074.06;;;13.41
69415;BMP280;56608;43.530;-5.652;2023-05-13T02:14:26;102083.63;;;13.46
69415;BMP280;56608;43.530;-5.652;2023-05-13T02:15:26;102082.84;;;13.45
69415;BMP280;56608;43.530;-5.652;2023-05-13T02:16:27;102078.28;;;13.42
69415;BMP280;56608;43.530;-5.652;2023-05-13T02:17:27;102086.22;;;13.33
69415;BMP280;56608;43.530;-5.652;2023-05-13T02:18:27;102083.97;;;13.28
69415;BMP280;56608;43.530;-5.652;2023-05-13T02:19:28;102077.66;;;13.35
69415;BMP280;56608;43.530;-5.652;2023-05-13T02:20:28;102085.72;;;13.38
69415;BMP280;56608;43.530;-5.652;2023-05-13T02:21:28;102086.88;;;13.37
69415;BMP280;56608;43.530;-5.652;2023-05-13T02:22:29;102086.12;;;13.37
69415;BMP280;56608;43.530;-5.652;2023-05-13T02:23:29;102084.19;;;13.37
69415;BMP280;56608;43.530;-5.652;2023-05-13T02:24:29;102084.78;;;13.45
69415;BMP280;56608;43.530;-5.652;2023-05-13T02:25:30;102081.13;;;13.35
69415;BMP280;56608;43.530;-5.652;2023-05-13T02:26:30;102082.09;;;13.25
69415;BMP280;56608;43.530;-5.652;2023-05-13T02:27:30;102084.13;;;13.21
69415;BMP280;56608;43.530;-5.652;2023-05-13T02:28:31;102081.22;;;13.31
69415;BMP280;56608;43.530;-5.652;2023-05-13T02:29:31;102082.75;;;13.32
69415;BMP280;56608;43.530;-5.652;2023-05-13T02:30:32;102085.22;;;13.23
69415;BMP280;56608;43.530;-5.652;2023-05-13T02:31:32;102090.44;;;13.34
69415;BMP280;56608;43.530;-5.652;2023-05-13T02:32:32;102088.56;;;13.31
69415;BMP280;56608;43.530;-5.652;2023-05-13T02:33:33;102085.03;;;13.34
69415;BMP280;56608;43.530;-5.652;2023-05-13T02:34:33;102093.12;;;13.34
69415;BMP280;56608;43.530;-5.652;2023-05-13T02:35:33;102093.41;;;13.40
69415;BMP280;56608;43.530;-5.652;2023-05-13T02:36:34;102082.84;;;13.45
69415;BMP280;56608;43.530;-5.652;2023-05-13T02:37:34;102095.66;;;13.41
69415;BMP280;56608;43.530;-5.652;2023-05-13T02:38:34;102087.56;;;13.41
69415;BMP280;56608;43.530;-5.652;2023-05-13T02:39:34;102092.13;;;13.44
69415;BMP280;56608;43.530;-5.652;2023-05-13T02:40:35;102090.84;;;13.32
69415;BMP280;56608;43.530;-5.652;2023-05-13T02:41:35;102078.09;;;13.33
69415;BMP280;56608;43.530;-5.652;2023-05-13T02:42:36;102090.75;;;13.36
69415;BMP280;56608;43.530;-5.652;2023-05-13T02:43:36;102089.72;;;13.30
69415;BMP280;56608;43.530;-5.652;2023-05-13T02:44:36;102092.13;;;13.24
69415;BMP280;56608;43.530;-5.652;2023-05-13T02:45:38;102097.16;;;13.26
69415;BMP280;56608;43.530;-5.652;2023-05-13T02:46:39;102093.41;;;13.20
69415;BMP280;56608;43.530;-5.652;2023-05-13T02:47:39;102098.53;;;13.14
69415;BMP280;56608;43.530;-5.652;2023-05-13T02:48:40;102096.41;;;13.22
69415;BMP280;56608;43.530;-5.652;2023-05-13T02:49:40;102096.41;;;13.22
69415;BMP280;56608;43.530;-5.652;2023-05-13T02:50:40;102084.13;;;13.21
69415;BMP280;56608;43.530;-5.652;2023-05-13T02:51:41;102095.53;;;13.28
69415;BMP280;56608;43.530;-5.652;2023-05-13T02:52:41;102092.97;;;13.21
69415;BMP280;56608;43.530;-5.652;2023-05-13T02:53:41;102092.28;;;13.17
69415;BMP280;56608;43.530;-5.652;2023-05-13T02:54:42;102098.84;;;13.16
69415;BMP280;56608;43.530;-5.652;2023-05-13T02:55:42;102098.19;;;13.12
69415;BMP280;56608;43.530;-5.652;2023-05-13T02:56:42;102088.28;;;13.06
69415;BMP280;56608;43.530;-5.652;2023-05-13T02:57:43;102096.75;;;13.08
69415;BMP280;56608;43.530;-5.652;2023-05-13T02:58:43;102083.72;;;13.03
69415;BMP280;56608;43.530;-5.652;2023-05-13T02:59:43;102091.66;;;13.10
69415;BMP280;56608;43.530;-5.652;2023-05-13T03:00:44;102086.72;;;13.08
69415;BMP280;56608;43.530;-5.652;2023-05-13T03:01:44;102085.88;;;13.11
69415;BMP280;56608;43.530;-5.652;2023-05-13T03:02:44;102090.16;;;13.09
69415;BMP280;56608;43.530;-5.652;2023-05-13T03:03:45;102090.16;;;13.09
69415;BMP280;56608;43.530;-5.652;2023-05-13T03:04:45;102088.16;;;13.13
69415;BMP280;56608;43.530;-5.652;2023-05-13T03:05:46;102093.12;;;13.14
69415;BMP280;56608;43.530;-5.652;2023-05-13T03:06:46;102089.81;;;13.07
69415;BMP280;56608;43.530;-5.652;2023-05-13T03:07:47;102088.91;;;13.13
69415;BMP280;56608;43.530;-5.652;2023-05-13T03:08:47;102094.31;;;13.13
69415;BMP280;56608;43.530;-5.652;2023-05-13T03:09:47;102091.47;;;13.20
69415;BMP280;56608;43.530;-5.652;2023-05-13T03:10:49;102091.03;;;13.22
69415;BMP280;56608;43.530;-5.652;2023-05-13T03:11:50;102085.81;;;13.15
69415;BMP280;56608;43.530;-5.652;2023-05-13T03:12:50;102091.13;;;13.18
69415;BMP280;56608;43.530;-5.652;2023-05-13T03:13:51;102096.50;;;13.18
69415;BMP280;56608;43.530;-5.652;2023-05-13T03:14:51;102095.84;;;13.14
69415;BMP280;56608;43.530;-5.652;2023-05-13T03:15:51;102095.66;;;13.21
69415;BMP280;56608;43.530;-5.652;2023-05-13T03:16:52;102097.94;;;13.23
69415;BMP280;56608;43.530;-5.652;2023-05-13T03:17:52;102102.66;;;13.19
69415;BMP280;56608;43.530;-5.652;2023-05-13T03:18:52;102095.34;;;13.19
69415;BMP280;56608;43.530;-5.652;2023-05-13T03:19:52;102103.16;;;13.14
69415;BMP280;56608;43.530;-5.652;2023-05-13T03:20:53;102094.63;;;13.15
69415;BMP280;56608;43.530;-5.652;2023-05-13T03:21:53;102088.91;;;13.13
69415;BMP280;56608;43.530;-5.652;2023-05-13T03:22:53;102090.44;;;13.14
69415;BMP280;56608;43.530;-5.652;2023-05-13T03:23:54;102094.03;;;13.08
69415;BMP280;56608;43.530;-5.652;2023-05-13T03:24:54;102096.59;;;13.15
69415;BMP280;56608;43.530;-5.652;2023-05-13T03:25:56;102097.34;;;13.15
69415;BMP280;56608;43.530;-5.652;2023-05-13T03:26:56;102098.84;;;13.16
69415;BMP280;56608;43.530;-5.652;2023-05-13T03:27:56;102099.56;;;13.20
69415;BMP280;56608;43.530;-5.652;2023-05-13T03:28:57;102105.78;;;13.17
69415;BMP280;56608;43.530;-5.652;2023-05-13T03:29:57;102094.72;;;13.12
69415;BMP280;56608;43.530;-5.652;2023-05-13T03:30:57;102102.81;;;13.12
69415;BMP280;56608;43.530;-5.652;2023-05-13T03:31:58;102092.03;;;13.12
69415;BMP280;56608;43.530;-5.652;2023-05-13T03:32:58;102089.31;;;13.12
69415;BMP280;56608;43.530;-5.652;2023-05-13T03:33:58;102090.44;;;13.14
69415;BMP280;56608;43.530;-5.652;2023-05-13T03:34:59;102094.22;;;13.17
69415;BMP280;56608;43.530;-5.652;2023-05-13T03:36:03;102089.72;;;13.10
69415;BMP280;56608;43.530;-5.652;2023-05-13T03:37:03;102094.37;;;13.10
69415;BMP280;56608;43.530;-5.652;2023-05-13T03:38:04;102092.03;;;13.12
69415;BMP280;56608;43.530;-5.652;2023-05-13T03:39:04;102091.25;;;13.11
69415;BMP280;56608;43.530;-5.652;2023-05-13T03:40:05;102097.22;;;13.03
69415;BMP280;56608;43.530;-5.652;2023-05-13T03:41:05;102089.56;;;13.01
69415;BMP280;56608;43.530;-5.652;2023-05-13T03:42:05;102088.22;;;13.09
69415;BMP280;56608;43.530;-5.652;2023-05-13T03:43:06;102093.91;;;13.15
69415;BMP280;56608;43.530;-5.652;2023-05-13T03:44:06;102098.94;;;13.13
69415;BMP280;56608;43.530;-5.652;2023-05-13T03:45:07;102093.53;;;13.13
69415;BMP280;56608;43.530;-5.652;2023-05-13T03:46:07;102093.31;;;13.23
69415;BMP280;56608;43.530;-5.652;2023-05-13T03:47:08;102102.41;;;13.33
69415;BMP280;56608;43.530;-5.652;2023-05-13T03:48:08;102096.56;;;13.35
69415;BMP280;56608;43.530;-5.652;2023-05-13T03:49:08;102095.41;;;13.36
69415;BMP280;56608;43.530;-5.652;2023-05-13T03:50:09;102095.66;;;13.41
69415;BMP280;56608;43.530;-5.652;2023-05-13T03:51:09;102092.94;;;13.41
69415;BMP280;56608;43.530;-5.652;2023-05-13T03:52:10;102098.19;;;13.48
69415;BMP280;56608;43.530;-5.652;2023-05-13T03:53:10;102098.28;;;13.45
69415;BMP280;56608;43.530;-5.652;2023-05-13T03:54:11;102090.44;;;13.50
69415;BMP280;56608;43.530;-5.652;2023-05-13T03:55:11;102096.00;;;13.43
69415;BMP280;56608;43.530;-5.652;2023-05-13T03:56:13;102093.56;;;13.49
69415;BMP280;56608;43.530;-5.652;2023-05-13T03:57:14;102090.06;;;13.52
69415;BMP280;56608;43.530;-5.652;2023-05-13T03:58:14;102096.69;;;13.47
69415;BMP280;56608;43.530;-5.652;2023-05-13T03:59:15;102089.16;;;13.39
69415;BMP280;56608;43.530;-5.652;2023-05-13T04:00:15;102092.94;;;13.41
69415;BMP280;56608;43.530;-5.652;2023-05-13T04:01:16;102092.94;;;13.41
69415;BMP280;56608;43.530;-5.652;2023-05-13T04:02:16;102093.44;;;13.36
69415;BMP280;56608;43.530;-5.652;2023-05-13T04:03:17;102091.94;;;13.35
69415;BMP280;56608;43.530;-5.652;2023-05-13T04:04:18;102099.47;;;13.44
69415;BMP280;56608;43.530;-5.652;2023-05-13T04:05:18;102094.41;;;13.46
69415;BMP280;56608;43.530;-5.652;2023-05-13T04:06:19;102095.25;;;13.43
69415;BMP280;56608;43.530;-5.652;2023-05-13T04:07:19;102096.69;;;13.47
69415;BMP280;56608;43.530;-5.652;2023-05-13T04:08:19;102091.44;;;13.40
69415;BMP280;56608;43.530;-5.652;2023-05-13T04:09:20;102090.75;;;13.36
69415;BMP280;56608;43.530;-5.652;2023-05-13T04:10:20;102095.31;;;13.39
69415;BMP280;56608;43.530;-5.652;2023-05-13T04:11:20;102101.13;;;13.38
69415;BMP280;56608;43.530;-5.652;2023-05-13T04:12:21;102090.91;;;13.29
69415;BMP280;56608;43.530;-5.652;2023-05-13T04:13:21;102095.91;;;13.30
69415;BMP280;56608;43.530;-5.652;2023-05-13T04:14:22;102095.84;;;13.34
69415;BMP280;56608;43.530;-5.652;2023-05-13T04:15:22;102091.09;;;13.38
69415;BMP280;56608;43.530;-5.652;2023-05-13T04:16:22;102091.59;;;13.33
69415;BMP280;56608;43.530;-5.652;2023-05-13T04:17:24;102092.91;;;13.25
69415;BMP280;56608;43.530;-5.652;2023-05-13T04:18:24;102096.09;;;13.20
69415;BMP280;56608;43.530;-5.652;2023-05-13T04:19:25;102091.37;;;13.24
69415;BMP280;56608;43.530;-5.652;2023-05-13T04:20:25;102097.28;;;13.19
69415;BMP280;56608;43.530;-5.652;2023-05-13T04:21:26;102090.69;;;13.20
69415;BMP280;56608;43.530;-5.652;2023-05-13T04:22:26;102088.69;;;13.24
69415;BMP280;56608;43.530;-5.652;2023-05-13T04:23:27;102089.59;;;13.17
69415;BMP280;56608;43.530;-5.652;2023-05-13T04:24:27;102088.06;;;13.16
69415;BMP280;56608;43.530;-5.652;2023-05-13T04:25:27;102090.59;;;13.07
69415;BMP280;56608;43.530;-5.652;2023-05-13T04:26:27;102087.78;;;13.11
69415;BMP280;56608;43.530;-5.652;2023-05-13T04:27:28;102088.56;;;13.11
69415;BMP280;56608;43.530;-5.652;2023-05-13T04:28:28;102081.72;;;13.07
69415;BMP280;56608;43.530;-5.652;2023-05-13T04:29:29;102090.59;;;13.07
69415;BMP280;56608;43.530;-5.652;2023-05-13T04:30:29;102088.97;;;13.10
69415;BMP280;56608;43.530;-5.652;2023-05-13T04:31:30;102092.84;;;13.09
69415;BMP280;56608;43.530;-5.652;2023-05-13T04:32:30;102087.53;;;13.05
69415;BMP280;56608;43.530;-5.652;2023-05-13T04:33:31;102087.53;;;13.05
69415;BMP280;56608;43.530;-5.652;2023-05-13T04:34:31;102093.75;;;13.02
69415;BMP280;56608;43.530;-5.652;2023-05-13T04:35:31;102083.81;;;12.99
69415;BMP280;56608;43.530;-5.652;2023-05-13T04:36:31;102085.25;;;13.04
69415;BMP280;56608;43.530;-5.652;2023-05-13T04:37:32;102083.56;;;13.10
69415;BMP280;56608;43.530;-5.652;2023-05-13T04:38:32;102087.13;;;13.07
69415;BMP280;56608;43.530;-5.652;2023-05-13T04:39:33;102082.62;;;13.00
69415;BMP280;56608;43.530;-5.652;2023-05-13T04:40:33;102086.88;;;12.98
69415;BMP280;56608;43.530;-5.652;2023-05-13T04:41:33;102074.44;;;13.04
69415;BMP280;56608;43.530;-5.652;2023-05-13T04:42:34;102085.94;;;13.08
69415;BMP280;56608;43.530;-5.652;2023-05-13T04:43:34;102079.19;;;12.96
69415;BMP280;56608;43.530;-5.652;2023-05-13T04:44:35;102081.22;;;12.92
69415;BMP280;56608;43.530;-5.652;2023-05-13T04:45:35;102081.22;;;12.92
69415;BMP280;56608;43.530;-5.652;2023-05-13T04:46:36;102088.06;;;12.97
69415;BMP280;56608;43.530;-5.652;2023-05-13T04:47:39;102083.97;;;12.88
69415;BMP280;56608;43.530;-5.652;2023-05-13T04:48:39;102089.22;;;12.95
69415;BMP280;56608;43.530;-5.652;2023-05-13T04:49:40;102079.62;;;12.94
69415;BMP280;56608;43.530;-5.652;2023-05-13T04:50:43;102082.66;;;12.97
69415;BMP280;56608;43.530;-5.652;2023-05-13T04:51:44;102087.72;;;12.94
69415;BMP280;56608;43.530;-5.652;2023-05-13T04:52:44;102087.78;;;12.91
69415;BMP280;56608;43.530;-5.652;2023-05-13T04:53:46;102082.03;;;12.89
69415;BMP280;56608;43.530;-5.652;2023-05-13T04:54:46;102086.00;;;12.84
69415;BMP280;56608;43.530;-5.652;2023-05-13T04:55:49;102087.03;;;12.90
69415;BMP280;56608;43.530;-5.652;2023-05-13T04:56:51;102083.91;;;12.92
69415;BMP280;56608;43.530;-5.652;2023-05-13T04:57:51;102089.38;;;12.88
69415;BMP280;56608;43.530;-5.652;2023-05-13T04:58:52;102084.47;;;12.83
69415;BMP280;56608;43.530;-5.652;2023-05-13T04:59:52;102090.87;;;12.89
69415;BMP280;56608;43.530;-5.652;2023-05-13T05:00:52;102097.03;;;12.90
69415;BMP280;56608;43.530;-5.652;2023-05-13T05:01:53;102090.97;;;12.86
69415;BMP280;56608;43.530;-5.652;2023-05-13T05:02:54;102094.75;;;12.88
69415;BMP280;56608;43.530;-5.652;2023-05-13T05:03:56;102099.75;;;12.90
69415;BMP280;56608;43.530;-5.652;2023-05-13T05:04:57;102099.34;;;12.91
69415;BMP280;56608;43.530;-5.652;2023-05-13T05:05:57;102101.00;;;12.85
69415;BMP280;56608;43.530;-5.652;2023-05-13T05:06:58;102101.50;;;12.80
69415;BMP280;56608;43.530;-5.652;2023-05-13T05:07:58;102109.09;;;12.85
69415;BMP280;56608;43.530;-5.652;2023-05-13T05:08:58;102110.34;;;12.81
69415;BMP280;56608;43.530;-5.652;2023-05-13T05:09:59;102108.41;;;12.81
69415;BMP280;56608;43.530;-5.652;2023-05-13T05:10:59;102106.94;;;12.77
69415;BMP280;56608;43.530;-5.652;2023-05-13T05:12:00;102105.72;;;12.81
69415;BMP280;56608;43.530;-5.652;2023-05-13T05:13:01;102115.09;;;12.73
69415;BMP280;56608;43.530;-5.652;2023-05-13T05:14:01;102108.56;;;12.71
69415;BMP280;56608;43.530;-5.652;2023-05-13T05:15:01;102112.41;;;12.73
69415;BMP280;56608;43.530;-5.652;2023-05-13T05:16:02;102112.78;;;12.72
69415;BMP280;56608;43.530;-5.652;2023-05-13T05:17:02;102113.81;;;12.81
69415;BMP280;56608;43.530;-5.652;2023-05-13T05:18:02;102110.34;;;12.81
69415;BMP280;56608;43.530;-5.652;2023-05-13T05:19:05;102123.06;;;12.80
69415;BMP280;56608;43.530;-5.652;2023-05-13T05:20:05;102115.38;;;12.79
69415;BMP280;56608;43.530;-5.652;2023-05-13T05:21:06;102122.63;;;12.82
69415;BMP280;56608;43.530;-5.652;2023-05-13T05:22:06;102121.53;;;12.79
69415;BMP280;56608;43.530;-5.652;2023-05-13T05:23:07;102121.06;;;12.84
69415;BMP280;56608;43.530;-5.652;2023-05-13T05:24:09;102123.34;;;12.86
69415;BMP280;56608;43.530;-5.652;2023-05-13T05:25:09;102125.63;;;12.87
69415;BMP280;56608;43.530;-5.652;2023-05-13T05:26:10;102121.00;;;12.88
69415;BMP280;56608;43.530;-5.652;2023-05-13T05:27:10;102125.31;;;12.82
69415;BMP280;56608;43.530;-5.652;2023-05-13T05:28:11;102127.69;;;12.80
69415;BMP280;56608;43.530;-5.652;2023-05-13T05:29:11;102133.84;;;12.80
69415;BMP280;56608;43.530;-5.652;2023-05-13T05:30:12;102128.78;;;12.82
69415;BMP280;56608;43.530;-5.652;2023-05-13T05:31:12;102132.69;;;12.81
69415;BMP280;56608;43.530;-5.652;2023-05-13T05:32:13;102126.81;;;12.86
69415;BMP280;56608;43.530;-5.652;2023-05-13T05:33:13;102129.09;;;12.88
69415;BMP280;56608;43.530;-5.652;2023-05-13T05:34:13;102132.75;;;12.98
69415;BMP280;56608;43.530;-5.652;2023-05-13T05:35:14;102133.12;;;13.00
69415;BMP280;56608;43.530;-5.652;2023-05-13T05:36:15;102125.41;;;12.98
69415;BMP280;56608;43.530;-5.652;2023-05-13T05:37:16;102130.75;;;13.02
69415;BMP280;56608;43.530;-5.652;2023-05-13T05:38:16;102130.75;;;13.02
69415;BMP280;56608;43.530;-5.652;2023-05-13T05:39:17;102120.59;;;13.09
69415;BMP280;56608;43.530;-5.652;2023-05-13T05:40:17;102126.69;;;13.13
69415;BMP280;56608;43.530;-5.652;2023-05-13T05:41:18;102125.06;;;13.16
69415;BMP280;56608;43.530;-5.652;2023-05-13T05:42:19;102131.59;;;13.18
69415;BMP280;56608;43.530;-5.652;2023-05-13T05:43:19;102130.47;;;13.16
69415;BMP280;56608;43.530;-5.652;2023-05-13T05:44:20;102135.28;;;13.08
69415;BMP280;56608;43.530;-5.652;2023-05-13T05:45:20;102131.37;;;13.09
69415;BMP280;56608;43.530;-5.652;2023-05-13T05:46:20;102138.66;;;13.12
69415;BMP280;56608;43.530;-5.652;2023-05-13T05:47:22;102135.88;;;13.16
69415;BMP280;56608;43.530;-5.652;2023-05-13T05:48:22;102147.88;;;13.15